sensor_id;sensor_type;location;lat;lon;timestamp;P1;durP1;ratioP1;P2;durP2;ratioP2
41799;SDS011;27468;47.460;19.034;2022-08-24T00:01:09;10.13;;;8.10;;
41799;SDS011;27468;47.460;19.034;2022-08-24T00:03:38;8.75;;;7.85;;
41799;SDS011;27468;47.460;19.034;2022-08-24T00:06:05;9.30;;;8.07;;
41799;SDS011;27468;47.460;19.034;2022-08-24T00:08:32;8.90;;;8.00;;
41799;SDS011;27468;47.460;19.034;2022-08-24T00:10:58;8.35;;;7.55;;
41799;SDS011;27468;47.460;19.034;2022-08-24T00:13:24;10.20;;;8.25;;
41799;SDS011;27468;47.460;19.034;2022-08-24T00:15:49;11.35;;;8.40;;
41799;SDS011;27468;47.460;19.034;2022-08-24T00:18:16;10.07;;;8.93;;
41799;SDS011;27468;47.460;19.034;2022-08-24T00:20:42;10.48;;;8.90;;
41799;SDS011;27468;47.460;19.034;2022-08-24T00:23:07;10.50;;;8.65;;
41799;SDS011;27468;47.460;19.034;2022-08-24T00:25:33;9.80;;;8.77;;
41799;SDS011;27468;47.460;19.034;2022-08-24T00:27:58;10.10;;;9.05;;
41799;SDS011;27468;47.460;19.034;2022-08-24T00:30:25;10.02;;;8.75;;
41799;SDS011;27468;47.460;19.034;2022-08-24T00:32:52;10.98;;;9.30;;
41799;SDS011;27468;47.460;19.034;2022-08-24T00:35:18;10.55;;;9.35;;
41799;SDS011;27468;47.460;19.034;2022-08-24T00:37:44;12.98;;;8.77;;
41799;SDS011;27468;47.460;19.034;2022-08-24T00:40:23;9.95;;;8.60;;
41799;SDS011;27468;47.460;19.034;2022-08-24T00:42:55;9.90;;;8.73;;
41799;SDS011;27468;47.460;19.034;2022-08-24T00:45:21;9.88;;;8.88;;
41799;SDS011;27468;47.460;19.034;2022-08-24T00:47:50;10.27;;;8.93;;
41799;SDS011;27468;47.460;19.034;2022-08-24T00:50:28;11.63;;;9.13;;
41799;SDS011;27468;47.460;19.034;2022-08-24T00:53:23;10.88;;;9.48;;
41799;SDS011;27468;47.460;19.034;2022-08-24T00:55:56;10.40;;;9.30;;
41799;SDS011;27468;47.460;19.034;2022-08-24T00:58:29;10.40;;;9.30;;
41799;SDS011;27468;47.460;19.034;2022-08-24T01:01:00;10.80;;;9.60;;
41799;SDS011;27468;47.460;19.034;2022-08-24T01:03:27;11.85;;;10.02;;
41799;SDS011;27468;47.460;19.034;2022-08-24T01:05:56;12.02;;;10.00;;
41799;SDS011;27468;47.460;19.034;2022-08-24T01:08:22;11.93;;;9.95;;
41799;SDS011;27468;47.460;19.034;2022-08-24T01:10:52;12.00;;;9.98;;
41799;SDS011;27468;47.460;19.034;2022-08-24T01:13:20;11.77;;;9.85;;
41799;SDS011;27468;47.460;19.034;2022-08-24T01:15:47;12.25;;;10.25;;
41799;SDS011;27468;47.460;19.034;2022-08-24T01:18:17;12.85;;;10.57;;
41799;SDS011;27468;47.460;19.034;2022-08-24T01:21:09;12.15;;;10.68;;
41799;SDS011;27468;47.460;19.034;2022-08-24T01:23:43;12.57;;;10.30;;
41799;SDS011;27468;47.460;19.034;2022-08-24T01:26:20;13.00;;;10.27;;
41799;SDS011;27468;47.460;19.034;2022-08-24T01:28:51;12.50;;;11.05;;
41799;SDS011;27468;47.460;19.034;2022-08-24T01:31:21;13.30;;;10.50;;
41799;SDS011;27468;47.460;19.034;2022-08-24T01:33:52;14.32;;;12.05;;
41799;SDS011;27468;47.460;19.034;2022-08-24T01:36:24;14.57;;;11.70;;
41799;SDS011;27468;47.460;19.034;2022-08-24T01:38:52;15.48;;;11.70;;
41799;SDS011;27468;47.460;19.034;2022-08-24T01:41:18;16.00;;;12.05;;
41799;SDS011;27468;47.460;19.034;2022-08-24T01:43:43;15.50;;;12.20;;
41799;SDS011;27468;47.460;19.034;2022-08-24T01:46:09;15.32;;;12.40;;
41799;SDS011;27468;47.460;19.034;2022-08-24T01:48:35;13.55;;;11.15;;
41799;SDS011;27468;47.460;19.034;2022-08-24T01:51:00;16.65;;;12.65;;
41799;SDS011;27468;47.460;19.034;2022-08-24T01:53:26;15.27;;;11.85;;
41799;SDS011;27468;47.460;19.034;2022-08-24T01:55:52;16.13;;;13.07;;
41799;SDS011;27468;47.460;19.034;2022-08-24T01:58:17;18.52;;;13.45;;
41799;SDS011;27468;47.460;19.034;2022-08-24T02:00:43;16.33;;;12.68;;
41799;SDS011;27468;47.460;19.034;2022-08-24T02:03:09;17.15;;;13.68;;
41799;SDS011;27468;47.460;19.034;2022-08-24T02:05:35;17.45;;;13.02;;
41799;SDS011;27468;47.460;19.034;2022-08-24T02:08:01;16.80;;;13.68;;
41799;SDS011;27468;47.460;19.034;2022-08-24T02:10:27;18.52;;;14.23;;
41799;SDS011;27468;47.460;19.034;2022-08-24T02:12:53;18.77;;;14.02;;
41799;SDS011;27468;47.460;19.034;2022-08-24T02:15:28;17.30;;;14.13;;
41799;SDS011;27468;47.460;19.034;2022-08-24T02:18:02;18.83;;;14.20;;
41799;SDS011;27468;47.460;19.034;2022-08-24T02:20:28;19.00;;;14.57;;
41799;SDS011;27468;47.460;19.034;2022-08-24T02:22:54;18.58;;;14.45;;
41799;SDS011;27468;47.460;19.034;2022-08-24T02:25:21;17.80;;;14.13;;
41799;SDS011;27468;47.460;19.034;2022-08-24T02:27:48;18.52;;;14.23;;
41799;SDS011;27468;47.460;19.034;2022-08-24T02:30:14;20.20;;;15.25;;
41799;SDS011;27468;47.460;19.034;2022-08-24T02:32:40;19.85;;;15.00;;
41799;SDS011;27468;47.460;19.034;2022-08-24T02:35:05;17.83;;;14.23;;
41799;SDS011;27468;47.460;19.034;2022-08-24T02:37:32;17.48;;;14.57;;
41799;SDS011;27468;47.460;19.034;2022-08-24T02:39:57;17.60;;;13.93;;
41799;SDS011;27468;47.460;19.034;2022-08-24T02:42:23;17.80;;;13.88;;
41799;SDS011;27468;47.460;19.034;2022-08-24T02:44:49;17.30;;;14.00;;
41799;SDS011;27468;47.460;19.034;2022-08-24T02:47:14;17.17;;;13.93;;
41799;SDS011;27468;47.460;19.034;2022-08-24T02:49:40;18.52;;;13.35;;
41799;SDS011;27468;47.460;19.034;2022-08-24T02:52:05;18.08;;;13.73;;
41799;SDS011;27468;47.460;19.034;2022-08-24T02:54:30;16.65;;;13.48;;
41799;SDS011;27468;47.460;19.034;2022-08-24T02:56:56;17.85;;;13.90;;
41799;SDS011;27468;47.460;19.034;2022-08-24T02:59:21;17.50;;;13.15;;
41799;SDS011;27468;47.460;19.034;2022-08-24T03:01:47;17.38;;;13.38;;
41799;SDS011;27468;47.460;19.034;2022-08-24T03:04:13;17.05;;;13.38;;
41799;SDS011;27468;47.460;19.034;2022-08-24T03:06:40;18.25;;;14.10;;
41799;SDS011;27468;47.460;19.034;2022-08-24T03:09:06;17.58;;;14.07;;
41799;SDS011;27468;47.460;19.034;2022-08-24T03:11:32;18.27;;;14.18;;
41799;SDS011;27468;47.460;19.034;2022-08-24T03:13:58;18.02;;;13.55;;
41799;SDS011;27468;47.460;19.034;2022-08-24T03:16:24;17.35;;;13.38;;
41799;SDS011;27468;47.460;19.034;2022-08-24T03:18:53;17.65;;;14.65;;
41799;SDS011;27468;47.460;19.034;2022-08-24T03:21:19;18.77;;;14.52;;
41799;SDS011;27468;47.460;19.034;2022-08-24T03:23:44;18.83;;;14.55;;
41799;SDS011;27468;47.460;19.034;2022-08-24T03:26:10;19.83;;;14.77;;
41799;SDS011;27468;47.460;19.034;2022-08-24T03:28:36;19.80;;;15.43;;
41799;SDS011;27468;47.460;19.034;2022-08-24T03:31:02;20.92;;;15.68;;
41799;SDS011;27468;47.460;19.034;2022-08-24T03:33:27;20.50;;;14.80;;
41799;SDS011;27468;47.460;19.034;2022-08-24T03:35:54;21.05;;;15.65;;
41799;SDS011;27468;47.460;19.034;2022-08-24T03:38:20;21.08;;;15.30;;
41799;SDS011;27468;47.460;19.034;2022-08-24T03:40:45;19.90;;;14.65;;
41799;SDS011;27468;47.460;19.034;2022-08-24T03:43:11;19.33;;;15.20;;
41799;SDS011;27468;47.460;19.034;2022-08-24T03:45:56;19.20;;;15.23;;
41799;SDS011;27468;47.460;19.034;2022-08-24T03:48:22;17.92;;;14.50;;
41799;SDS011;27468;47.460;19.034;2022-08-24T03:50:48;19.70;;;14.90;;
41799;SDS011;27468;47.460;19.034;2022-08-24T03:53:14;18.23;;;14.27;;
41799;SDS011;27468;47.460;19.034;2022-08-24T03:55:39;17.73;;;14.00;;
41799;SDS011;27468;47.460;19.034;2022-08-24T03:58:05;21.00;;;15.50;;
41799;SDS011;27468;47.460;19.034;2022-08-24T04:00:30;22.10;;;15.98;;
41799;SDS011;27468;47.460;19.034;2022-08-24T04:02:56;19.05;;;15.05;;
41799;SDS011;27468;47.460;19.034;2022-08-24T04:05:21;18.55;;;14.52;;
41799;SDS011;27468;47.460;19.034;2022-08-24T04:07:46;22.13;;;15.18;;
41799;SDS011;27468;47.460;19.034;2022-08-24T04:10:12;23.25;;;15.77;;
41799;SDS011;27468;47.460;19.034;2022-08-24T04:12:38;17.73;;;14.27;;
41799;SDS011;27468;47.460;19.034;2022-08-24T04:15:04;17.50;;;13.52;;
41799;SDS011;27468;47.460;19.034;2022-08-24T04:17:31;17.35;;;13.40;;
41799;SDS011;27468;47.460;19.034;2022-08-24T04:19:56;18.33;;;13.70;;
41799;SDS011;27468;47.460;19.034;2022-08-24T04:22:22;18.77;;;13.63;;
41799;SDS011;27468;47.460;19.034;2022-08-24T04:24:52;17.60;;;13.45;;
41799;SDS011;27468;47.460;19.034;2022-08-24T04:27:17;19.00;;;13.60;;
41799;SDS011;27468;47.460;19.034;2022-08-24T04:29:43;17.60;;;13.55;;
41799;SDS011;27468;47.460;19.034;2022-08-24T04:32:08;18.73;;;13.70;;
41799;SDS011;27468;47.460;19.034;2022-08-24T04:34:34;16.23;;;12.98;;
41799;SDS011;27468;47.460;19.034;2022-08-24T04:37:00;17.75;;;12.88;;
41799;SDS011;27468;47.460;19.034;2022-08-24T04:39:25;17.00;;;12.07;;
41799;SDS011;27468;47.460;19.034;2022-08-24T04:41:51;15.60;;;12.05;;
41799;SDS011;27468;47.460;19.034;2022-08-24T04:44:16;14.20;;;11.70;;
41799;SDS011;27468;47.460;19.034;2022-08-24T04:46:43;13.43;;;10.73;;
41799;SDS011;27468;47.460;19.034;2022-08-24T04:49:08;11.70;;;9.95;;
41799;SDS011;27468;47.460;19.034;2022-08-24T04:51:34;11.35;;;9.88;;
41799;SDS011;27468;47.460;19.034;2022-08-24T04:54:00;12.82;;;9.93;;
41799;SDS011;27468;47.460;19.034;2022-08-24T04:56:26;10.82;;;9.43;;
41799;SDS011;27468;47.460;19.034;2022-08-24T04:58:51;11.68;;;8.95;;
41799;SDS011;27468;47.460;19.034;2022-08-24T05:01:21;10.43;;;7.97;;
41799;SDS011;27468;47.460;19.034;2022-08-24T05:03:48;11.48;;;8.68;;
41799;SDS011;27468;47.460;19.034;2022-08-24T05:06:16;14.07;;;10.48;;
41799;SDS011;27468;47.460;19.034;2022-08-24T05:08:43;12.88;;;10.90;;
41799;SDS011;27468;47.460;19.034;2022-08-24T05:11:11;12.70;;;10.43;;
41799;SDS011;27468;47.460;19.034;2022-08-24T05:13:38;14.60;;;10.38;;
41799;SDS011;27468;47.460;19.034;2022-08-24T05:16:08;13.07;;;10.80;;
41799;SDS011;27468;47.460;19.034;2022-08-24T05:18:35;12.60;;;10.90;;
41799;SDS011;27468;47.460;19.034;2022-08-24T05:21:04;12.98;;;10.30;;
41799;SDS011;27468;47.460;19.034;2022-08-24T05:23:31;10.80;;;8.75;;
41799;SDS011;27468;47.460;19.034;2022-08-24T05:26:06;9.52;;;8.50;;
41799;SDS011;27468;47.460;19.034;2022-08-24T05:28:37;8.65;;;7.75;;
41799;SDS011;27468;47.460;19.034;2022-08-24T05:31:12;9.00;;;7.40;;
41799;SDS011;27468;47.460;19.034;2022-08-24T05:33:39;9.68;;;7.60;;
41799;SDS011;27468;47.460;19.034;2022-08-24T05:36:05;8.70;;;7.50;;
41799;SDS011;27468;47.460;19.034;2022-08-24T05:38:44;7.63;;;6.63;;
41799;SDS011;27468;47.460;19.034;2022-08-24T05:41:10;7.88;;;7.00;;
41799;SDS011;27468;47.460;19.034;2022-08-24T05:43:36;8.18;;;6.93;;
41799;SDS011;27468;47.460;19.034;2022-08-24T05:46:01;7.25;;;6.20;;
41799;SDS011;27468;47.460;19.034;2022-08-24T05:48:27;7.85;;;6.78;;
41799;SDS011;27468;47.460;19.034;2022-08-24T05:50:53;8.50;;;6.65;;
41799;SDS011;27468;47.460;19.034;2022-08-24T05:53:19;7.78;;;6.32;;
41799;SDS011;27468;47.460;19.034;2022-08-24T05:55:45;7.97;;;6.05;;
41799;SDS011;27468;47.460;19.034;2022-08-24T05:58:11;6.72;;;6.00;;
41799;SDS011;27468;47.460;19.034;2022-08-24T06:00:36;7.65;;;5.97;;
41799;SDS011;27468;47.460;19.034;2022-08-24T06:03:02;8.65;;;6.28;;
41799;SDS011;27468;47.460;19.034;2022-08-24T06:05:28;6.63;;;5.72;;
41799;SDS011;27468;47.460;19.034;2022-08-24T06:07:53;7.05;;;6.25;;
41799;SDS011;27468;47.460;19.034;2022-08-24T06:10:19;7.85;;;5.93;;
41799;SDS011;27468;47.460;19.034;2022-08-24T06:12:45;8.35;;;6.20;;
41799;SDS011;27468;47.460;19.034;2022-08-24T06:15:10;7.15;;;6.20;;
41799;SDS011;27468;47.460;19.034;2022-08-24T06:17:37;8.05;;;6.43;;
41799;SDS011;27468;47.460;19.034;2022-08-24T06:20:03;8.18;;;5.90;;
41799;SDS011;27468;47.460;19.034;2022-08-24T06:22:29;7.32;;;6.60;;
41799;SDS011;27468;47.460;19.034;2022-08-24T06:24:55;8.52;;;6.72;;
41799;SDS011;27468;47.460;19.034;2022-08-24T06:27:39;8.95;;;6.28;;
41799;SDS011;27468;47.460;19.034;2022-08-24T06:30:07;7.50;;;6.13;;
41799;SDS011;27468;47.460;19.034;2022-08-24T06:32:34;7.95;;;5.80;;
41799;SDS011;27468;47.460;19.034;2022-08-24T06:35:00;8.80;;;6.00;;
41799;SDS011;27468;47.460;19.034;2022-08-24T06:37:26;6.82;;;6.10;;
41799;SDS011;27468;47.460;19.034;2022-08-24T06:39:55;6.43;;;5.72;;
41799;SDS011;27468;47.460;19.034;2022-08-24T06:42:21;7.57;;;5.95;;
41799;SDS011;27468;47.460;19.034;2022-08-24T06:44:53;10.60;;;6.20;;
41799;SDS011;27468;47.460;19.034;2022-08-24T06:47:19;7.85;;;6.28;;
41799;SDS011;27468;47.460;19.034;2022-08-24T06:49:45;8.40;;;5.60;;
41799;SDS011;27468;47.460;19.034;2022-08-24T06:52:10;8.82;;;6.60;;
41799;SDS011;27468;47.460;19.034;2022-08-24T06:54:36;9.10;;;6.00;;
41799;SDS011;27468;47.460;19.034;2022-08-24T06:57:02;8.68;;;6.05;;
41799;SDS011;27468;47.460;19.034;2022-08-24T06:59:28;7.38;;;5.55;;
41799;SDS011;27468;47.460;19.034;2022-08-24T07:01:56;6.93;;;5.82;;
41799;SDS011;27468;47.460;19.034;2022-08-24T07:04:25;8.15;;;6.07;;
41799;SDS011;27468;47.460;19.034;2022-08-24T07:06:51;7.78;;;5.60;;
41799;SDS011;27468;47.460;19.034;2022-08-24T07:09:18;9.02;;;5.47;;
41799;SDS011;27468;47.460;19.034;2022-08-24T07:11:43;8.65;;;6.05;;
41799;SDS011;27468;47.460;19.034;2022-08-24T07:14:09;6.88;;;5.63;;
41799;SDS011;27468;47.460;19.034;2022-08-24T07:16:34;9.35;;;5.72;;
41799;SDS011;27468;47.460;19.034;2022-08-24T07:19:00;9.50;;;6.00;;
41799;SDS011;27468;47.460;19.034;2022-08-24T07:21:26;7.07;;;5.80;;
41799;SDS011;27468;47.460;19.034;2022-08-24T07:23:53;8.13;;;5.80;;
41799;SDS011;27468;47.460;19.034;2022-08-24T07:26:21;9.95;;;6.05;;
41799;SDS011;27468;47.460;19.034;2022-08-24T07:28:55;9.13;;;6.82;;
41799;SDS011;27468;47.460;19.034;2022-08-24T07:31:25;6.70;;;5.95;;
41799;SDS011;27468;47.460;19.034;2022-08-24T07:33:51;7.93;;;6.38;;
41799;SDS011;27468;47.460;19.034;2022-08-24T07:36:16;9.50;;;5.88;;
41799;SDS011;27468;47.460;19.034;2022-08-24T07:38:43;7.90;;;5.75;;
41799;SDS011;27468;47.460;19.034;2022-08-24T07:41:10;6.88;;;5.78;;
41799;SDS011;27468;47.460;19.034;2022-08-24T07:43:37;7.00;;;6.18;;
41799;SDS011;27468;47.460;19.034;2022-08-24T07:46:03;7.18;;;5.82;;
41799;SDS011;27468;47.460;19.034;2022-08-24T07:48:29;9.63;;;7.20;;
41799;SDS011;27468;47.460;19.034;2022-08-24T07:50:55;7.47;;;5.60;;
41799;SDS011;27468;47.460;19.034;2022-08-24T07:53:23;7.30;;;5.63;;
41799;SDS011;27468;47.460;19.034;2022-08-24T07:55:55;8.02;;;6.47;;
41799;SDS011;27468;47.460;19.034;2022-08-24T07:58:21;6.60;;;5.53;;
41799;SDS011;27468;47.460;19.034;2022-08-24T08:00:47;6.72;;;5.45;;
41799;SDS011;27468;47.460;19.034;2022-08-24T08:03:13;6.70;;;5.18;;
41799;SDS011;27468;47.460;19.034;2022-08-24T08:05:38;7.90;;;5.47;;
41799;SDS011;27468;47.460;19.034;2022-08-24T08:08:07;7.78;;;5.07;;
41799;SDS011;27468;47.460;19.034;2022-08-24T08:10:32;6.65;;;5.25;;
41799;SDS011;27468;47.460;19.034;2022-08-24T08:13:03;9.27;;;5.78;;
41799;SDS011;27468;47.460;19.034;2022-08-24T08:15:29;7.57;;;5.55;;
41799;SDS011;27468;47.460;19.034;2022-08-24T08:17:55;8.20;;;5.40;;
41799;SDS011;27468;47.460;19.034;2022-08-24T08:20:21;7.63;;;4.95;;
41799;SDS011;27468;47.460;19.034;2022-08-24T08:22:47;6.28;;;4.90;;
41799;SDS011;27468;47.460;19.034;2022-08-24T08:25:31;6.28;;;4.72;;
41799;SDS011;27468;47.460;19.034;2022-08-24T08:27:57;6.22;;;5.03;;
41799;SDS011;27468;47.460;19.034;2022-08-24T08:30:22;5.10;;;4.47;;
41799;SDS011;27468;47.460;19.034;2022-08-24T08:32:48;5.38;;;4.70;;
41799;SDS011;27468;47.460;19.034;2022-08-24T08:35:13;7.03;;;5.20;;
41799;SDS011;27468;47.460;19.034;2022-08-24T08:37:39;6.13;;;4.78;;
41799;SDS011;27468;47.460;19.034;2022-08-24T08:40:06;7.90;;;5.00;;
41799;SDS011;27468;47.460;19.034;2022-08-24T08:47:45;7.60;;;4.95;;
41799;SDS011;27468;47.460;19.034;2022-08-24T08:56:17;6.20;;;4.35;;
41799;SDS011;27468;47.460;19.034;2022-08-24T08:58:47;6.97;;;3.90;;
41799;SDS011;27468;47.460;19.034;2022-08-24T09:12:16;6.78;;;4.50;;
41799;SDS011;27468;47.460;19.034;2022-08-24T09:39:47;6.95;;;4.57;;
41799;SDS011;27468;47.460;19.034;2022-08-24T09:42:40;7.63;;;4.93;;
41799;SDS011;27468;47.460;19.034;2022-08-24T09:45:46;9.35;;;4.65;;
41799;SDS011;27468;47.460;19.034;2022-08-24T09:48:52;7.05;;;4.45;;
41799;SDS011;27468;47.460;19.034;2022-08-24T10:02:30;8.05;;;4.22;;
41799;SDS011;27468;47.460;19.034;2022-08-24T10:21:08;8.93;;;5.85;;
41799;SDS011;27468;47.460;19.034;2022-08-24T10:26:39;7.60;;;4.90;;
41799;SDS011;27468;47.460;19.034;2022-08-24T10:32:33;8.45;;;5.47;;
41799;SDS011;27468;47.460;19.034;2022-08-24T10:35:13;10.00;;;5.65;;
41799;SDS011;27468;47.460;19.034;2022-08-24T10:38:09;9.27;;;5.50;;
41799;SDS011;27468;47.460;19.034;2022-08-24T10:49:22;10.90;;;6.45;;
41799;SDS011;27468;47.460;19.034;2022-08-24T10:54:49;12.35;;;7.63;;
41799;SDS011;27468;47.460;19.034;2022-08-24T11:00:18;13.15;;;8.45;;
41799;SDS011;27468;47.460;19.034;2022-08-24T11:02:46;15.05;;;8.93;;
41799;SDS011;27468;47.460;19.034;2022-08-24T11:05:13;14.77;;;8.40;;
41799;SDS011;27468;47.460;19.034;2022-08-24T11:10:22;16.70;;;9.15;;
41799;SDS011;27468;47.460;19.034;2022-08-24T11:12:55;15.75;;;9.40;;
41799;SDS011;27468;47.460;19.034;2022-08-24T11:15:45;13.68;;;9.32;;
41799;SDS011;27468;47.460;19.034;2022-08-24T11:18:15;15.57;;;8.93;;
41799;SDS011;27468;47.460;19.034;2022-08-24T11:20:42;15.27;;;8.80;;
41799;SDS011;27468;47.460;19.034;2022-08-24T11:23:19;15.45;;;8.73;;
41799;SDS011;27468;47.460;19.034;2022-08-24T11:29:05;14.77;;;8.98;;
41799;SDS011;27468;47.460;19.034;2022-08-24T11:31:21;11.70;;;8.95;;
41799;SDS011;27468;47.460;19.034;2022-08-24T11:33:56;15.27;;;9.05;;
41799;SDS011;27468;47.460;19.034;2022-08-24T11:36:25;14.13;;;8.52;;
41799;SDS011;27468;47.460;19.034;2022-08-24T11:49:56;12.30;;;8.13;;
41799;SDS011;27468;47.460;19.034;2022-08-24T12:03:48;12.10;;;8.63;;
41799;SDS011;27468;47.460;19.034;2022-08-24T12:06:20;11.45;;;8.13;;
41799;SDS011;27468;47.460;19.034;2022-08-24T12:11:53;13.27;;;9.00;;
41799;SDS011;27468;47.460;19.034;2022-08-24T12:14:43;13.30;;;8.40;;
41799;SDS011;27468;47.460;19.034;2022-08-24T12:17:27;14.20;;;9.85;;
41799;SDS011;27468;47.460;19.034;2022-08-24T12:23:13;11.95;;;8.50;;
41799;SDS011;27468;47.460;19.034;2022-08-24T12:25:50;11.93;;;8.27;;
41799;SDS011;27468;47.460;19.034;2022-08-24T12:28:39;13.75;;;9.13;;
41799;SDS011;27468;47.460;19.034;2022-08-24T12:31:18;12.25;;;8.07;;
41799;SDS011;27468;47.460;19.034;2022-08-24T12:33:50;13.00;;;8.38;;
41799;SDS011;27468;47.460;19.034;2022-08-24T12:36:29;11.20;;;8.38;;
41799;SDS011;27468;47.460;19.034;2022-08-24T12:39:13;10.57;;;7.97;;
41799;SDS011;27468;47.460;19.034;2022-08-24T12:41:48;12.65;;;8.23;;
41799;SDS011;27468;47.460;19.034;2022-08-24T12:44:18;11.40;;;8.27;;
41799;SDS011;27468;47.460;19.034;2022-08-24T12:46:51;12.00;;;7.95;;
41799;SDS011;27468;47.460;19.034;2022-08-24T12:49:19;12.85;;;8.23;;
41799;SDS011;27468;47.460;19.034;2022-08-24T12:54:55;12.88;;;8.35;;
41799;SDS011;27468;47.460;19.034;2022-08-24T13:00:21;12.60;;;7.70;;
41799;SDS011;27468;47.460;19.034;2022-08-24T13:02:54;12.82;;;7.40;;
41799;SDS011;27468;47.460;19.034;2022-08-24T13:05:29;10.25;;;8.13;;
41799;SDS011;27468;47.460;19.034;2022-08-24T13:08:08;10.13;;;7.07;;
41799;SDS011;27468;47.460;19.034;2022-08-24T13:10:41;15.30;;;9.40;;
41799;SDS011;27468;47.460;19.034;2022-08-24T13:13:20;13.68;;;9.55;;
41799;SDS011;27468;47.460;19.034;2022-08-24T13:16:02;16.05;;;10.23;;
41799;SDS011;27468;47.460;19.034;2022-08-24T13:21:33;13.95;;;10.48;;
41799;SDS011;27468;47.460;19.034;2022-08-24T13:26:53;13.20;;;9.57;;
41799;SDS011;27468;47.460;19.034;2022-08-24T13:29:24;14.43;;;10.07;;
41799;SDS011;27468;47.460;19.034;2022-08-24T13:31:53;13.88;;;10.15;;
41799;SDS011;27468;47.460;19.034;2022-08-24T13:44:58;13.20;;;10.02;;
41799;SDS011;27468;47.460;19.034;2022-08-24T13:47:32;12.15;;;8.88;;
41799;SDS011;27468;47.460;19.034;2022-08-24T14:17:24;12.68;;;9.88;;
41799;SDS011;27468;47.460;19.034;2022-08-24T14:23:01;11.68;;;9.88;;
41799;SDS011;27468;47.460;19.034;2022-08-24T14:25:29;13.18;;;10.05;;
41799;SDS011;27468;47.460;19.034;2022-08-24T14:50:04;16.58;;;13.02;;
41799;SDS011;27468;47.460;19.034;2022-08-24T15:00:53;16.33;;;13.57;;
41799;SDS011;27468;47.460;19.034;2022-08-24T15:06:19;17.67;;;14.35;;
41799;SDS011;27468;47.460;19.034;2022-08-24T15:09:42;16.90;;;13.98;;
41799;SDS011;27468;47.460;19.034;2022-08-24T15:11:51;18.58;;;13.55;;
41799;SDS011;27468;47.460;19.034;2022-08-24T15:14:28;19.40;;;14.63;;
41799;SDS011;27468;47.460;19.034;2022-08-24T15:17:09;15.90;;;13.18;;
41799;SDS011;27468;47.460;19.034;2022-08-24T15:25:16;18.27;;;15.00;;
41799;SDS011;27468;47.460;19.034;2022-08-24T15:27:56;19.50;;;14.48;;
41799;SDS011;27468;47.460;19.034;2022-08-24T15:30:27;19.25;;;15.95;;
41799;SDS011;27468;47.460;19.034;2022-08-24T15:35:36;18.95;;;15.05;;
41799;SDS011;27468;47.460;19.034;2022-08-24T15:38:18;19.77;;;15.23;;
41799;SDS011;27468;47.460;19.034;2022-08-24T15:40:44;14.45;;;12.63;;
41799;SDS011;27468;47.460;19.034;2022-08-24T15:43:11;12.43;;;9.15;;
41799;SDS011;27468;47.460;19.034;2022-08-24T15:45:40;10.63;;;7.55;;
41799;SDS011;27468;47.460;19.034;2022-08-24T15:48:11;10.63;;;7.53;;
41799;SDS011;27468;47.460;19.034;2022-08-24T15:50:40;11.00;;;6.35;;
41799;SDS011;27468;47.460;19.034;2022-08-24T15:55:49;9.57;;;6.20;;
41799;SDS011;27468;47.460;19.034;2022-08-24T15:58:34;9.40;;;6.03;;
41799;SDS011;27468;47.460;19.034;2022-08-24T16:01:23;10.05;;;6.30;;
41799;SDS011;27468;47.460;19.034;2022-08-24T16:06:44;10.02;;;6.93;;
41799;SDS011;27468;47.460;19.034;2022-08-24T16:09:13;8.75;;;6.50;;
41799;SDS011;27468;47.460;19.034;2022-08-24T16:14:26;9.55;;;6.35;;
41799;SDS011;27468;47.460;19.034;2022-08-24T16:16:54;11.02;;;7.10;;
41799;SDS011;27468;47.460;19.034;2022-08-24T16:19:22;10.60;;;7.18;;
41799;SDS011;27468;47.460;19.034;2022-08-24T16:29:34;10.90;;;8.00;;
41799;SDS011;27468;47.460;19.034;2022-08-24T16:34:53;11.00;;;7.20;;
41799;SDS011;27468;47.460;19.034;2022-08-24T16:37:25;13.02;;;7.45;;
41799;SDS011;27468;47.460;19.034;2022-08-24T16:39:50;10.82;;;6.95;;
41799;SDS011;27468;47.460;19.034;2022-08-24T16:42:23;10.18;;;7.40;;
41799;SDS011;27468;47.460;19.034;2022-08-24T16:44:51;12.30;;;7.25;;
41799;SDS011;27468;47.460;19.034;2022-08-24T16:47:17;8.32;;;6.68;;
41799;SDS011;27468;47.460;19.034;2022-08-24T16:49:44;10.25;;;7.03;;
41799;SDS011;27468;47.460;19.034;2022-08-24T16:52:10;10.82;;;7.53;;
41799;SDS011;27468;47.460;19.034;2022-08-24T16:54:36;9.75;;;6.90;;
41799;SDS011;27468;47.460;19.034;2022-08-24T16:57:04;10.32;;;7.57;;
41799;SDS011;27468;47.460;19.034;2022-08-24T16:59:36;8.20;;;7.13;;
41799;SDS011;27468;47.460;19.034;2022-08-24T17:02:02;12.45;;;8.15;;
41799;SDS011;27468;47.460;19.034;2022-08-24T17:04:27;10.00;;;7.28;;
41799;SDS011;27468;47.460;19.034;2022-08-24T17:06:53;12.52;;;8.07;;
41799;SDS011;27468;47.460;19.034;2022-08-24T17:09:20;11.82;;;7.85;;
41799;SDS011;27468;47.460;19.034;2022-08-24T17:11:46;11.30;;;8.40;;
41799;SDS011;27468;47.460;19.034;2022-08-24T17:14:14;11.57;;;7.90;;
41799;SDS011;27468;47.460;19.034;2022-08-24T17:16:40;11.27;;;8.40;;
41799;SDS011;27468;47.460;19.034;2022-08-24T17:19:12;13.55;;;8.23;;
41799;SDS011;27468;47.460;19.034;2022-08-24T17:21:41;12.35;;;8.30;;
41799;SDS011;27468;47.460;19.034;2022-08-24T17:24:07;11.50;;;8.50;;
41799;SDS011;27468;47.460;19.034;2022-08-24T17:26:33;14.57;;;8.35;;
41799;SDS011;27468;47.460;19.034;2022-08-24T17:29:01;15.48;;;8.90;;
41799;SDS011;27468;47.460;19.034;2022-08-24T17:31:29;13.10;;;7.80;;
41799;SDS011;27468;47.460;19.034;2022-08-24T17:33:56;11.70;;;7.55;;
41799;SDS011;27468;47.460;19.034;2022-08-24T17:36:23;12.25;;;8.00;;
41799;SDS011;27468;47.460;19.034;2022-08-24T17:38:51;11.07;;;7.78;;
41799;SDS011;27468;47.460;19.034;2022-08-24T17:41:18;12.98;;;7.75;;
41799;SDS011;27468;47.460;19.034;2022-08-24T17:43:44;13.15;;;7.85;;
41799;SDS011;27468;47.460;19.034;2022-08-24T17:46:10;11.65;;;7.72;;
41799;SDS011;27468;47.460;19.034;2022-08-24T17:48:38;11.23;;;7.57;;
41799;SDS011;27468;47.460;19.034;2022-08-24T17:51:06;15.77;;;7.82;;
41799;SDS011;27468;47.460;19.034;2022-08-24T17:53:31;11.68;;;7.63;;
41799;SDS011;27468;47.460;19.034;2022-08-24T17:55:57;12.40;;;8.02;;
41799;SDS011;27468;47.460;19.034;2022-08-24T17:58:22;11.60;;;7.78;;
41799;SDS011;27468;47.460;19.034;2022-08-24T18:00:48;11.40;;;7.30;;
41799;SDS011;27468;47.460;19.034;2022-08-24T18:03:14;10.48;;;7.70;;
41799;SDS011;27468;47.460;19.034;2022-08-24T18:05:40;11.40;;;7.32;;
41799;SDS011;27468;47.460;19.034;2022-08-24T18:08:05;11.20;;;7.70;;
41799;SDS011;27468;47.460;19.034;2022-08-24T18:10:32;14.40;;;7.93;;
41799;SDS011;27468;47.460;19.034;2022-08-24T18:12:58;11.70;;;7.15;;
41799;SDS011;27468;47.460;19.034;2022-08-24T18:15:25;10.00;;;7.50;;
41799;SDS011;27468;47.460;19.034;2022-08-24T18:17:54;13.77;;;7.43;;
41799;SDS011;27468;47.460;19.034;2022-08-24T18:20:23;12.10;;;8.25;;
41799;SDS011;27468;47.460;19.034;2022-08-24T18:22:50;12.07;;;7.70;;
41799;SDS011;27468;47.460;19.034;2022-08-24T18:25:17;14.60;;;7.18;;
41799;SDS011;27468;47.460;19.034;2022-08-24T18:27:46;11.48;;;6.78;;
41799;SDS011;27468;47.460;19.034;2022-08-24T18:30:20;9.85;;;6.43;;
41799;SDS011;27468;47.460;19.034;2022-08-24T18:32:48;13.07;;;7.25;;
41799;SDS011;27468;47.460;19.034;2022-08-24T18:35:13;10.75;;;6.95;;